Sandy City
, Sandy
Last Weather Update:07/30/2011 11:00:00 PM
Date
ETo
ETc
Rain
Irrigation
Req
Temp
Max
Temp
Min
Temp
Avg
Avg RH
Avg Wind
Avg Solar
inches
inches
incehs
inches
F
F
F
%
%
watts/m2
06/01/2011 0.18" 0.14" 0.00" 0.14" 80.0° 54.4° 69.1° 21.7% 0.9 MPH 286.9w/m2
06/02/2011 0.17" 0.14" 0.00" 0.14" 68.9° 46.1° 55.4° 42.7% 0.8 MPH 335.0w/m2
06/03/2011 0.18" 0.15" 0.00" 0.15" 65.3° 39.4° 52.8° 55.9% 0.3 MPH 346.5w/m2
06/04/2011 0.20" 0.16" 0.00" 0.16" 78.6° 41.7° 61.3° 49.6% 0.3 MPH 339.7w/m2
06/05/2011 0.26" 0.21" 0.00" 0.21" 88.0° 49.7° 70.9° 36.0% 0.5 MPH 406.4w/m2
06/06/2011 0.18" 0.14" 0.00" 0.14" 83.1° 57.1° 67.8° 32.3% 0.8 MPH 262.3w/m2
06/07/2011 0.24" 0.19" 0.00" 0.19" 72.6° 47.6° 61.7° 51.8% 0.4 MPH 400.3w/m2
06/08/2011 0.22" 0.17" 0.01" 0.16" 74.9° 49.3° 61.1° 63.2% 0.5 MPH 363.5w/m2
06/09/2011 0.17" 0.14" 0.01" 0.13" 66.1° 47.1° 57.8° 63.5% 0.5 MPH 315.3w/m2
06/10/2011 0.24" 0.19" 0.00" 0.19" 81.1° 43.7° 62.1° 47.4% 0.4 MPH 403.3w/m2
06/11/2011 0.19" 0.15" 0.00" 0.15" 76.0° 54.5° 66.6° 50.9% 0.3 MPH 308.9w/m2
06/12/2011 0.19" 0.15" 0.00" 0.15" 76.7° 54.0° 65.5° 60.4% 0.3 MPH 306.2w/m2
06/13/2011 0.18" 0.14" 0.00" 0.14" 77.0° 54.3° 65.1° 56.8% 0.4 MPH 292.4w/m2
06/14/2011 0.24" 0.19" 0.00" 0.19" 77.5° 53.4° 66.2° 59.0% 0.3 MPH 402.8w/m2
06/15/2011 0.24" 0.19" 0.00" 0.19" 87.6° 53.6° 71.7° 45.8% 0.4 MPH 371.3w/m2
06/16/2011 0.19" 0.15" 0.00" 0.15" 70.6° 54.0° 61.8° 49.3% 0.6 MPH 327.7w/m2
06/17/2011 0.23" 0.19" 0.00" 0.19" 72.5° 44.5° 59.7° 40.7% 0.3 MPH 413.3w/m2
06/18/2011 0.22" 0.17" 0.00" 0.17" 81.4° 48.7° 66.7° 38.6% 0.4 MPH 346.1w/m2
06/19/2011 0.04" 0.04" 0.88" -0.67" 67.4° 48.8° 54.3° 93.6% 0.4 MPH 92.6w/m2
06/20/2011 0.23" 0.18" 0.00" 0.18" 71.3° 50.2° 61.2° 68.4% 0.3 MPH 387.4w/m2
06/21/2011 0.25" 0.20" 0.00" 0.20" 80.7° 49.2° 66.7° 53.2% 0.4 MPH 403.0w/m2
06/22/2011 0.26" 0.21" 0.00" 0.21" 90.9° 53.8° 73.1° 45.6% 0.3 MPH 400.9w/m2
06/23/2011 0.25" 0.20" 0.00" 0.20" 93.9° 68.1° 80.6° 33.3% 0.6 MPH 365.3w/m2
06/24/2011 0.26" 0.21" 0.00" 0.21" 85.7° 61.0° 75.0° 43.8% 0.4 MPH 394.9w/m2
06/25/2011 0.26" 0.21" 0.00" 0.21" 86.2° 57.5° 73.4° 51.9% 0.4 MPH 396.4w/m2
06/26/2011 0.25" 0.20" 0.00" 0.20" 81.1° 58.4° 71.2° 46.2% 0.4 MPH 400.9w/m2
06/27/2011 0.26" 0.21" 0.00" 0.21" 91.9° 55.7° 74.6° 37.1% 0.4 MPH 401.0w/m2
06/28/2011 0.24" 0.19" 0.00" 0.19" 95.9° 64.0° 81.5° 27.3% 0.9 MPH 359.3w/m2
06/29/2011 0.18" 0.15" 0.04" 0.11" 91.8° 72.2° 82.0° 26.4% 0.9 MPH 255.0w/m2
06/30/2011 0.23" 0.18" 0.00" 0.18" 82.0° 64.2° 73.3° 47.4% 0.5 MPH 347.3w/m2
Totals: 6.42" 5.13" 0.94" 4.38" 95.9° 39.4° 67.0° 48.0% 0.5 MPH 347.7w/m2